Time;durP1;ratioP1;P1;durP2;ratioP2;P2;SDS_P1;SDS_P2;PMS_P1;PMS_P2;Temp;Humidity;BMP_temperature;BMP_pressure;BME280_temperature;BME280_humidity;BME280_pressure;Samples;Min_cycle;Max_cycle;Signal;HPM_P1;HPM_P2
2023/06/02 00:01:08;;;;;;;15.13;5.47;;;;;;;-0.20;66.24;97272.81;5050263;28;20056;-55
2023/06/02 00:03:36;;;;;;;15.32;5.82;;;;;;;-0.25;66.53;97277.72;5054636;28;20449;-55
2023/06/02 00:06:05;;;;;;;17.92;6.28;;;;;;;-0.21;66.15;97278.19;5050605;28;20115;-56
2023/06/02 00:08:33;;;;;;;22.98;6.80;;;;;;;-0.24;66.56;97283.75;5054810;28;20441;-55
2023/06/02 00:11:00;;;;;;;11.15;5.72;;;;;;;-0.14;65.88;97275.75;5050485;28;20049;-55
2023/06/02 00:13:27;;;;;;;18.42;6.32;;;;;;;-0.10;66.29;97282.22;5055339;28;20049;-56
2023/06/02 00:15:54;;;;;;;18.33;6.90;;;;;;;-0.14;65.61;97278.34;5054556;28;20040;-56
2023/06/02 00:18:22;;;;;;;15.77;6.90;;;;;;;-0.05;65.69;97277.31;5057653;28;20049;-56
2023/06/02 00:20:50;;;;;;;15.55;6.78;;;;;;;-0.07;64.51;97268.84;5052909;28;20052;-56
2023/06/02 00:23:16;;;;;;;20.05;7.50;;;;;;;0.03;64.39;97272.03;5055448;28;20103;-56
2023/06/02 00:25:43;;;;;;;17.42;6.78;;;;;;;-0.07;65.10;97276.69;5051297;28;20049;-55
2023/06/02 00:28:10;;;;;;;18.17;6.68;;;;;;;-0.02;64.41;97277.78;5055292;28;20045;-57
2023/06/02 00:30:37;;;;;;;23.30;6.97;;;;;;;-0.04;64.18;97277.16;5050105;28;20049;-55
2023/06/02 00:33:04;;;;;;;21.52;7.22;;;;;;;-0.17;64.60;97278.66;5053329;28;20041;-56
2023/06/02 00:35:31;;;;;;;15.93;7.25;;;;;;;-0.10;63.79;97280.41;5049674;28;20118;-56
2023/06/02 00:38:03;;;;;;;20.40;7.75;;;;;;;-0.17;64.32;97276.88;5050727;28;20454;-56
2023/06/02 00:40:32;;;;;;;17.77;7.78;;;;;;;-0.07;64.03;97276.69;5054263;28;20052;-55
2023/06/02 00:43:00;;;;;;;17.42;9.10;;;;;;;-0.04;63.63;97278.91;5048481;28;20040;-55
2023/06/02 00:45:27;;;;;;;20.27;8.13;;;;;;;-0.14;63.74;97273.94;5054180;28;20510;-55
2023/06/02 00:47:55;;;;;;;21.40;8.68;;;;;;;-0.22;64.07;97281.78;5048331;28;20052;-55
2023/06/02 00:50:22;;;;;;;16.23;7.93;;;;;;;-0.26;63.41;97283.09;5053146;28;20398;-55
2023/06/02 00:52:54;;;;;;;19.30;9.25;;;;;;;-0.37;63.54;97278.28;5050156;28;20506;-56
2023/06/02 00:55:20;;;;;;;19.52;9.05;;;;;;;-0.38;63.99;97277.47;5053879;28;20483;-55
2023/06/02 00:57:51;;;;;;;21.20;10.15;;;;;;;-0.33;63.64;97280.34;5050772;28;20045;-55
2023/06/02 01:00:19;;;;;;;22.85;11.05;;;;;;;-0.35;63.76;97276.31;5053888;28;20049;-56
2023/06/02 01:02:47;;;;;;;26.48;12.85;;;;;;;-0.49;63.75;97272.59;5051908;28;20052;-55
2023/06/02 01:05:14;;;;;;;31.92;13.82;;;;;;;-0.58;63.66;97274.44;5053873;28;20374;-55
2023/06/02 01:07:44;;;;;;;19.45;12.80;;;;;;;-0.51;63.66;97271.97;5049369;28;20049;-55
2023/06/02 01:10:15;;;;;;;24.23;12.40;;;;;;;-0.55;63.92;97274.09;5052636;28;20048;-57
2023/06/02 01:12:43;;;;;;;26.63;13.70;;;;;;;-0.55;63.81;97270.69;5049103;28;20083;-55
2023/06/02 01:15:10;;;;;;;23.02;13.73;;;;;;;-0.43;63.67;97270.16;5053418;28;20049;-55
2023/06/02 01:17:38;;;;;;;24.33;12.70;;;;;;;-0.47;63.88;97266.25;5048884;28;20132;-55
2023/06/02 01:20:05;;;;;;;22.25;11.00;;;;;;;-0.41;64.18;97268.19;5052893;28;20052;-55
2023/06/02 01:22:38;;;;;;;23.80;11.13;;;;;;;-0.40;64.83;97269.00;5049591;28;20061;-56
2023/06/02 01:25:23;;;;;;;24.92;12.68;;;;;;;-0.36;64.13;97272.91;5052784;28;20048;-55
2023/06/02 01:27:51;;;;;;;20.90;10.30;;;;;;;-0.40;64.47;97276.81;5048645;28;20486;-55
2023/06/02 01:30:19;;;;;;;27.63;9.60;;;;;;;-0.70;64.53;97260.97;5053316;28;20447;-55
2023/06/02 01:32:54;;;;;;;26.00;10.43;;;;;;;-0.81;64.92;97263.94;5048619;28;20044;-55
2023/06/02 01:35:27;;;;;;;27.98;12.23;;;;;;;-1.01;65.27;97260.88;5053249;28;20461;-55
2023/06/02 01:37:59;;;;;;;22.08;11.40;;;;;;;-1.02;65.14;97260.09;5048563;28;20049;-55
2023/06/02 01:40:28;;;;;;;24.85;12.38;;;;;;;-0.87;65.05;97260.22;5053482;28;20128;-55
2023/06/02 01:42:57;;;;;;;23.15;12.63;;;;;;;-0.82;65.01;97265.72;5048294;28;20029;-56
2023/06/02 01:45:28;;;;;;;29.25;12.95;;;;;;;-0.74;64.39;97264.09;5049893;28;20052;-56
2023/06/02 01:48:04;;;;;;;27.40;14.50;;;;;;;-0.68;64.15;97266.00;5052723;28;20057;-56
2023/06/02 01:50:32;;;;;;;29.67;16.45;;;;;;;-0.71;63.89;97264.56;5048147;28;20056;-55
2023/06/02 01:52:58;;;;;;;29.75;16.70;;;;;;;-0.70;63.82;97271.38;5052999;28;20505;-55
2023/06/02 01:55:25;;;;;;;30.38;15.95;;;;;;;-0.78;63.96;97261.81;5048577;28;20045;-55
2023/06/02 01:57:52;;;;;;;30.00;13.80;;;;;;;-0.68;63.91;97266.81;5052786;28;20064;-55
2023/06/02 02:00:19;;;;;;;25.58;11.85;;;;;;;-0.65;63.61;97263.09;5047975;28;20419;-56
2023/06/02 02:02:57;;;;;;;28.10;10.88;;;;;;;-0.73;64.03;97260.50;5110929;27;20384;-55
2023/06/02 02:05:36;;;;;;;28.02;12.10;;;;;;;-0.85;63.98;97262.66;5126649;27;20185;-55
2023/06/02 02:08:16;;;;;;;29.25;13.30;;;;;;;-1.01;64.38;97263.50;5107522;27;20351;-55
2023/06/02 02:10:53;;;;;;;28.80;14.02;;;;;;;-0.95;64.42;97262.81;5070457;28;20703;-55
2023/06/02 02:13:22;;;;;;;30.50;15.82;;;;;;;-1.03;63.87;97273.25;5066017;28;20099;-56
2023/06/02 02:15:49;;;;;;;30.65;16.80;;;;;;;-1.05;64.27;97267.41;5070235;28;20057;-55
2023/06/02 02:18:16;;;;;;;29.00;17.02;;;;;;;-1.19;64.03;97264.47;5065619;28;20496;-55
2023/06/02 02:20:44;;;;;;;35.90;16.92;;;;;;;-1.30;64.84;97266.63;5070348;28;20102;-55
2023/06/02 02:23:11;;;;;;;38.97;18.10;;;;;;;-1.33;64.72;97270.34;5065819;28;20048;-55
2023/06/02 02:25:37;;;;;;;32.38;16.40;;;;;;;-1.43;65.17;97259.31;5068859;28;20058;-55
2023/06/02 02:28:04;;;;;;;36.40;16.20;;;;;;;-1.29;65.29;97263.84;5065904;28;20064;-55
2023/06/02 02:30:31;;;;;;;28.45;16.73;;;;;;;-1.34;65.10;97268.72;5066449;28;20044;-55
2023/06/02 02:33:01;;;;;;;32.38;16.90;;;;;;;-1.42;64.74;97272.16;5070192;28;20285;-55
2023/06/02 02:35:28;;;;;;;37.00;17.25;;;;;;;-1.41;64.93;97270.34;5069836;28;20049;-55
2023/06/02 02:37:56;;;;;;;33.38;18.85;;;;;;;-1.42;65.07;97271.31;5065286;28;20074;-55
2023/06/02 02:40:26;;;;;;;33.22;18.02;;;;;;;-1.44;65.70;97275.88;5069870;28;20048;-55
2023/06/02 02:42:52;;;;;;;30.58;17.77;;;;;;;-1.36;64.92;97270.69;5065205;28;20509;-55
2023/06/02 02:45:20;;;;;;;30.98;16.63;;;;;;;-1.22;65.34;97277.84;5069601;28;20052;-55
2023/06/02 02:47:47;;;;;;;36.03;15.13;;;;;;;-1.18;64.89;97275.72;5065284;28;20048;-55
2023/06/02 02:50:15;;;;;;;27.67;14.93;;;;;;;-1.31;64.74;97273.63;5068860;28;20494;-55
2023/06/02 02:52:44;;;;;;;27.27;14.95;;;;;;;-1.36;64.78;97273.28;5061874;28;20057;-55
2023/06/02 02:55:12;;;;;;;27.77;15.48;;;;;;;-1.31;65.16;97272.78;5069491;28;20509;-57
2023/06/02 02:57:39;;;;;;;32.38;16.95;;;;;;;-1.25;64.39;97275.56;5064832;28;20104;-55
2023/06/02 03:00:09;;;;;;;33.75;17.65;;;;;;;-1.27;64.18;97279.31;5069445;28;20098;-55
2023/06/02 03:02:36;;;;;;;36.45;18.15;;;;;;;-1.32;63.82;97284.19;5065151;28;20064;-55
2023/06/02 03:05:05;;;;;;;31.17;16.15;;;;;;;-1.38;63.73;97276.03;5069082;28;20402;-55
2023/06/02 03:07:34;;;;;;;37.25;16.35;;;;;;;-1.44;63.86;97284.47;5064980;28;20040;-55
2023/06/02 03:10:02;;;;;;;28.92;16.08;;;;;;;-1.59;64.12;97280.91;5068680;28;20493;-55
2023/06/02 03:12:30;;;;;;;30.70;15.93;;;;;;;-1.53;64.51;97279.44;5065818;28;20091;-55
2023/06/02 03:14:57;;;;;;;31.63;17.08;;;;;;;-1.63;64.39;97279.63;5069116;28;20047;-55
2023/06/02 03:17:24;;;;;;;28.33;16.05;;;;;;;-1.47;64.20;97284.81;5064501;28;20061;-55
2023/06/02 03:19:51;;;;;;;31.65;15.30;;;;;;;-1.51;64.13;97283.53;5068542;28;20036;-55
2023/06/02 03:22:17;;;;;;;35.00;15.32;;;;;;;-1.54;64.37;97286.44;5051006;28;20049;-57
2023/06/02 03:24:44;;;;;;;27.58;14.38;;;;;;;-1.51;63.36;97286.13;5054704;28;20067;-55
2023/06/02 03:27:13;;;;;;;35.50;16.42;;;;;;;-1.48;63.36;97291.00;5050500;28;20258;-55
2023/06/02 03:29:42;;;;;;;36.75;17.92;;;;;;;-1.39;63.17;97291.81;5055375;28;20050;-57
2023/06/02 03:32:11;;;;;;;35.28;18.65;;;;;;;-1.39;62.43;97294.41;5051421;28;20239;-57
2023/06/02 03:34:39;;;;;;;36.08;19.30;;;;;;;-1.38;62.80;97304.66;5051951;28;20041;-55
2023/06/02 03:37:07;;;;;;;38.63;19.15;;;;;;;-1.36;62.39;97294.91;5055492;28;20127;-55
2023/06/02 03:39:34;;;;;;;34.08;18.35;;;;;;;-1.43;61.97;97295.72;5050999;28;20379;-56
2023/06/02 03:42:01;;;;;;;29.70;16.25;;;;;;;-1.50;61.69;97299.94;5055516;28;20067;-55
2023/06/02 03:44:28;;;;;;;26.17;14.70;;;;;;;-1.52;61.79;97297.50;5050667;28;20045;-55
2023/06/02 03:46:55;;;;;;;27.60;14.85;;;;;;;-1.47;62.33;97299.63;5055388;28;20045;-55
2023/06/02 03:49:26;;;;;;;29.92;14.68;;;;;;;-1.45;61.83;97303.66;5050045;28;20498;-56
2023/06/02 03:51:53;;;;;;;24.75;12.13;;;;;;;-1.46;61.53;97296.03;5055500;28;20071;-57
2023/06/02 03:54:20;;;;;;;28.25;10.95;;;;;;;-1.58;60.85;97291.16;5050686;28;20044;-55
2023/06/02 03:56:46;;;;;;;28.02;10.82;;;;;;;-1.50;61.65;97300.75;5051721;28;20072;-55
2023/06/02 03:59:13;;;;;;;23.20;9.57;;;;;;;-1.52;61.60;97291.50;5055248;28;20052;-55
2023/06/02 04:01:41;;;;;;;26.58;9.60;;;;;;;-1.48;61.48;97295.38;5050607;28;20095;-55
2023/06/02 04:04:11;;;;;;;22.75;8.15;;;;;;;-1.73;62.06;97292.75;5055087;28;20048;-56
2023/06/02 04:06:41;;;;;;;21.52;7.40;;;;;;;-1.81;62.88;97298.75;5050422;28;20053;-55
2023/06/02 04:09:12;;;;;;;22.58;7.97;;;;;;;-1.83;62.92;97305.91;5054738;28;20045;-55
2023/06/02 04:11:41;;;;;;;24.67;7.60;;;;;;;-1.94;62.82;97306.19;5050254;28;20055;-57
2023/06/02 04:14:08;;;;;;;17.92;6.55;;;;;;;-1.92;62.80;97308.66;5049896;28;20064;-56
2023/06/02 04:16:36;;;;;;;21.83;7.90;;;;;;;-2.06;63.10;97307.47;5053561;28;20095;-55
2023/06/02 04:19:05;;;;;;;23.77;7.35;;;;;;;-2.01;63.18;97311.22;5050112;28;20040;-55
2023/06/02 04:21:31;;;;;;;18.50;7.55;;;;;;;-1.85;63.26;97317.44;5054625;28;20048;-55
2023/06/02 04:23:58;;;;;;;22.45;9.10;;;;;;;-1.82;62.56;97320.53;5050108;28;20049;-57
2023/06/02 04:26:25;;;;;;;23.33;9.05;;;;;;;-1.88;62.82;97312.53;5054511;28;20132;-55
2023/06/02 04:28:52;;;;;;;24.80;9.25;;;;;;;-1.76;62.62;97317.28;5050208;28;20283;-55
2023/06/02 04:31:26;;;;;;;20.63;7.45;;;;;;;-1.72;62.75;97316.97;5054477;28;20045;-57
2023/06/02 04:33:55;;;;;;;17.38;6.78;;;;;;;-1.87;63.25;97317.59;5053590;28;20124;-56
2023/06/02 04:36:22;;;;;;;22.17;6.20;;;;;;;-2.01;63.71;97313.81;5054246;28;20045;-56
2023/06/02 04:38:49;;;;;;;22.73;7.80;;;;;;;-1.89;63.58;97314.34;5049792;28;20487;-56
2023/06/02 04:41:16;;;;;;;21.92;6.60;;;;;;;-1.78;63.67;97319.22;5054165;28;20372;-55
2023/06/02 04:43:44;;;;;;;21.10;6.15;;;;;;;-1.64;63.05;97316.97;5049620;28;20048;-55
2023/06/02 04:46:11;;;;;;;29.00;6.85;;;;;;;-1.55;63.13;97316.00;5054214;28;20072;-55
2023/06/02 04:48:39;;;;;;;21.98;6.28;;;;;;;-1.75;62.81;97312.88;5049210;28;20094;-55
2023/06/02 04:51:07;;;;;;;19.40;6.38;;;;;;;-1.73;62.86;97310.94;5053829;28;20041;-55
2023/06/02 04:53:35;;;;;;;19.90;6.50;;;;;;;-1.65;62.46;97313.56;5050359;28;20043;-57
2023/06/02 04:56:03;;;;;;;21.40;6.00;;;;;;;-1.61;62.45;97314.06;5054194;28;20037;-55
2023/06/02 04:58:31;;;;;;;21.70;7.03;;;;;;;-1.74;62.40;97323.13;5049337;28;20049;-56
2023/06/02 05:00:57;;;;;;;21.50;6.40;;;;;;;-1.68;62.91;97316.47;5054224;28;20045;-57
2023/06/02 05:03:24;;;;;;;22.33;6.47;;;;;;;-1.73;63.03;97316.13;5049440;28;20049;-50
2023/06/02 05:05:51;;;;;;;20.52;6.40;;;;;;;-1.72;62.66;97319.56;5053801;28;20490;-57
2023/06/02 05:08:18;;;;;;;18.17;5.53;;;;;;;-1.74;62.92;97324.91;5048573;28;20383;-57
2023/06/02 05:10:45;;;;;;;17.73;6.00;;;;;;;-1.87;63.15;97320.19;5053353;28;20468;-56
2023/06/02 05:13:14;;;;;;;20.42;6.63;;;;;;;-1.79;63.03;97327.19;5048840;28;20037;-57
2023/06/02 05:15:40;;;;;;;25.73;6.70;;;;;;;-1.89;63.00;97316.94;5050119;28;20045;-57
2023/06/02 05:18:07;;;;;;;18.20;6.55;;;;;;;-1.89;64.07;97305.72;5053633;28;20052;-56
2023/06/02 05:20:34;;;;;;;15.55;6.22;;;;;;;-1.76;63.97;97322.47;5047638;28;20040;-56
2023/06/02 05:23:01;;;;;;;24.38;7.53;;;;;;;-1.72;64.35;97320.38;5053572;28;20041;-56
2023/06/02 05:25:29;;;;;;;22.92;6.55;;;;;;;-1.77;63.43;97315.63;5049246;28;20053;-57
2023/06/02 05:27:55;;;;;;;18.65;6.80;;;;;;;-1.70;63.91;97321.03;5053660;28;20069;-56
2023/06/02 05:30:22;;;;;;;20.38;7.57;;;;;;;-1.71;63.05;97314.22;5048164;28;20398;-57
2023/06/02 05:32:50;;;;;;;21.58;7.97;;;;;;;-1.59;62.47;97322.50;5052929;28;20453;-56
2023/06/02 05:35:16;;;;;;;21.30;7.57;;;;;;;-1.53;62.72;97310.66;5048238;28;20190;-56
2023/06/02 05:37:43;;;;;;;21.35;8.10;;;;;;;-1.39;62.36;97317.81;5053493;28;20056;-56
2023/06/02 05:40:12;;;;;;;22.88;7.90;;;;;;;-1.33;62.92;97311.94;5049678;28;20041;-56
2023/06/02 05:42:41;;;;;;;19.23;6.78;;;;;;;-1.28;61.99;97321.88;5053220;28;20123;-56
2023/06/02 05:45:08;;;;;;;19.25;6.82;;;;;;;-1.39;62.28;97323.81;5048007;28;20045;-56
2023/06/02 05:47:36;;;;;;;15.90;6.00;;;;;;;-1.34;62.34;97325.13;5052956;28;20056;-57
2023/06/02 05:50:04;;;;;;;21.98;6.18;;;;;;;-1.29;63.46;97321.06;5048405;28;20045;-56
2023/06/02 05:52:32;;;;;;;20.50;6.60;;;;;;;-1.43;62.58;97324.31;5052555;28;20110;-57
2023/06/02 05:54:59;;;;;;;25.70;6.32;;;;;;;-1.38;62.70;97322.84;5039061;28;20533;-57
2023/06/02 05:57:26;;;;;;;23.70;6.45;;;;;;;-1.44;63.01;97325.28;5045846;28;20437;-56
2023/06/02 05:59:53;;;;;;;15.80;6.30;;;;;;;-1.42;63.39;97325.94;5052765;28;20037;-56
2023/06/02 06:02:20;;;;;;;28.15;6.97;;;;;;;-1.28;65.58;97321.88;5047742;28;20044;-56
2023/06/02 06:04:48;;;;;;;23.60;6.85;;;;;;;-1.29;63.35;97320.25;5052859;28;20053;-56
2023/06/02 06:07:15;;;;;;;22.33;6.53;;;;;;;-1.52;64.01;97326.09;5048097;28;20045;-57
2023/06/02 06:09:42;;;;;;;20.65;7.03;;;;;;;-1.37;64.33;97332.25;5052301;28;20049;-56
2023/06/02 06:12:08;;;;;;;22.05;6.97;;;;;;;-1.38;63.57;97328.06;5048147;28;20132;-57
2023/06/02 06:14:36;;;;;;;19.85;7.20;;;;;;;-1.45;63.03;97332.28;5052638;28;20052;-56
2023/06/02 06:17:04;;;;;;;16.55;6.68;;;;;;;-1.43;63.11;97332.91;5042215;28;20049;-54
2023/06/02 06:19:30;;;;;;;19.25;6.40;;;;;;;-1.43;63.48;97330.31;5051032;28;20045;-54
2023/06/02 06:21:57;;;;;;;21.13;6.38;;;;;;;-1.43;63.15;97327.72;5046604;28;20045;-54
2023/06/02 06:24:24;;;;;;;18.33;7.50;;;;;;;-1.35;63.63;97332.09;5051535;28;20053;-54
2023/06/02 06:26:51;;;;;;;18.73;6.93;;;;;;;-1.38;62.88;97337.66;5047573;28;20076;-54
2023/06/02 06:29:18;;;;;;;16.23;7.03;;;;;;;-1.40;63.19;97332.59;5051896;28;20119;-54
2023/06/02 06:31:46;;;;;;;24.63;7.63;;;;;;;-1.32;63.38;97328.38;5045962;28;20040;-54
2023/06/02 06:34:13;;;;;;;24.13;7.90;;;;;;;-1.30;62.36;97329.84;5051485;28;20049;-53
2023/06/02 06:36:40;;;;;;;21.20;8.48;;;;;;;-1.16;63.29;97331.00;5048489;28;20056;-57
2023/06/02 06:39:06;;;;;;;22.83;8.25;;;;;;;-1.13;62.26;97329.84;5051926;28;20560;-57
2023/06/02 06:41:40;;;;;;;20.38;8.55;;;;;;;-1.04;62.79;97334.88;5047458;28;20045;-55
2023/06/02 06:44:11;;;;;;;22.10;8.48;;;;;;;-1.06;62.38;97334.22;5051729;28;20111;-54
2023/06/02 06:46:38;;;;;;;18.00;8.32;;;;;;;-1.02;61.69;97332.94;5047643;28;20049;-53
2023/06/02 06:49:05;;;;;;;26.08;9.55;;;;;;;-0.97;61.45;97333.22;5051919;28;20052;-54
2023/06/02 06:51:31;;;;;;;26.58;9.10;;;;;;;-0.86;62.08;97344.28;5047194;28;20040;-54
2023/06/02 06:53:58;;;;;;;26.00;10.20;;;;;;;-0.86;61.13;97339.09;5052064;28;20044;-54
2023/06/02 06:56:25;;;;;;;26.35;9.45;;;;;;;-0.70;60.91;97351.28;5047772;28;20517;-57
2023/06/02 06:58:52;;;;;;;25.35;9.30;;;;;;;-0.67;60.69;97343.16;5056104;28;20478;-57
2023/06/02 07:01:19;;;;;;;25.63;9.50;;;;;;;-0.72;60.75;97340.22;5052691;28;20399;-57
2023/06/02 07:03:45;;;;;;;19.30;8.90;;;;;;;-0.67;60.51;97341.34;5055866;28;20098;-57
2023/06/02 07:06:12;;;;;;;21.23;8.52;;;;;;;-0.72;59.84;97346.22;5039958;28;20494;-57
2023/06/02 07:08:38;;;;;;;23.02;9.40;;;;;;;-0.77;59.84;97336.31;5039928;28;20104;-57
2023/06/02 07:11:05;;;;;;;31.38;9.85;;;;;;;-0.86;59.71;97345.09;5038893;28;20033;-57
2023/06/02 07:13:32;;;;;;;24.38;10.48;;;;;;;-0.86;59.78;97350.31;5055617;28;20486;-57
2023/06/02 07:15:58;;;;;;;21.08;9.82;;;;;;;-0.77;59.93;97356.31;5049774;28;20041;-57
2023/06/02 07:18:25;;;;;;;22.90;10.77;;;;;;;-0.81;60.81;97350.63;5051908;28;20099;-57
2023/06/02 07:20:52;;;;;;;29.58;12.45;;;;;;;-0.64;60.12;97355.81;5046639;28;20045;-57
2023/06/02 07:23:19;;;;;;;26.67;11.25;;;;;;;-0.46;59.90;97351.22;5026652;28;20503;-57
2023/06/02 07:25:46;;;;;;;23.42;11.48;;;;;;;-0.50;59.04;97354.31;5034718;28;20495;-57
2023/06/02 07:28:13;;;;;;;26.90;12.70;;;;;;;-0.70;58.61;97356.47;5030769;28;20092;-57
2023/06/02 07:30:51;;;;;;;24.80;11.45;;;;;;;-0.59;58.45;97353.53;5035518;28;20128;-57
2023/06/02 07:33:20;;;;;;;27.40;11.40;;;;;;;-0.93;59.00;97349.34;5030791;28;20057;-57
2023/06/02 07:35:46;;;;;;;25.27;11.57;;;;;;;-0.83;59.45;97351.78;5032517;28;20080;-57
2023/06/02 07:38:13;;;;;;;28.25;12.05;;;;;;;-0.83;59.04;97346.56;5035447;28;20056;-57
2023/06/02 07:40:40;;;;;;;24.45;11.57;;;;;;;-0.69;58.93;97356.31;5029664;28;20494;-57
2023/06/02 07:43:06;;;;;;;24.67;12.80;;;;;;;-0.91;58.62;97346.56;5035171;28;20050;-57
2023/06/02 07:45:33;;;;;;;27.30;12.85;;;;;;;-0.87;59.54;97350.50;5030961;28;20049;-57
2023/06/02 07:48:00;;;;;;;24.27;12.75;;;;;;;-1.08;59.44;97341.38;5035230;28;20458;-57
2023/06/02 07:50:26;;;;;;;27.95;14.00;;;;;;;-0.94;59.61;97352.13;5030160;28;20361;-57
2023/06/02 07:52:54;;;;;;;25.38;12.98;;;;;;;-0.85;59.84;97338.94;5031897;28;20100;-57
2023/06/02 07:55:21;;;;;;;25.05;13.55;;;;;;;-0.65;59.64;97349.78;5034834;28;20045;-57
2023/06/02 07:57:48;;;;;;;31.00;13.75;;;;;;;-0.65;58.41;97344.59;5032021;28;20042;-57
2023/06/02 08:00:17;;;;;;;25.67;13.05;;;;;;;-0.50;57.79;97349.13;5042448;28;20044;-57
2023/06/02 08:02:46;;;;;;;22.85;13.20;;;;;;;-0.37;58.89;97352.00;5051794;28;20057;-57
2023/06/02 08:05:14;;;;;;;28.63;12.05;;;;;;;-0.33;57.31;97360.28;5054525;28;20045;-57
2023/06/02 08:07:41;;;;;;;24.88;13.05;;;;;;;-0.36;57.85;97360.63;5052798;28;20136;-58
2023/06/02 08:10:09;;;;;;;25.77;13.40;;;;;;;-0.38;58.13;97363.41;5052184;28;20140;-57
2023/06/02 08:12:36;;;;;;;24.67;13.23;;;;;;;-0.23;57.13;97361.72;5054071;28;20608;-56
2023/06/02 08:15:04;;;;;;;23.25;12.13;;;;;;;-0.13;57.46;97360.72;5051441;28;20457;-57
2023/06/02 08:17:31;;;;;;;24.10;12.60;;;;;;;-0.04;57.05;97364.91;5054619;28;20041;-57
2023/06/02 08:19:59;;;;;;;22.65;13.15;;;;;;;0.12;56.36;97364.03;5046774;28;20041;-57
2023/06/02 08:22:28;;;;;;;26.80;12.82;;;;;;;0.13;56.94;97371.69;5054561;28;20041;-57
2023/06/02 08:24:58;;;;;;;25.95;13.05;;;;;;;0.21;56.13;97362.22;5049778;28;20052;-57
2023/06/02 08:27:25;;;;;;;23.90;11.82;;;;;;;0.12;56.72;97364.84;5054669;28;20048;-56
2023/06/02 08:29:53;;;;;;;27.63;12.57;;;;;;;0.04;56.52;97358.84;5050082;28;20133;-57
2023/06/02 08:32:22;;;;;;;32.92;12.68;;;;;;;0.01;56.83;97359.22;5054452;28;20056;-56
2023/06/02 08:34:51;;;;;;;25.17;12.15;;;;;;;0.19;56.12;97359.78;5049599;28;20053;-57
2023/06/02 08:37:18;;;;;;;32.67;11.35;;;;;;;0.14;56.07;97357.66;5054539;28;20045;-57
2023/06/02 08:39:46;;;;;;;25.17;12.00;;;;;;;-0.03;55.75;97366.56;5048558;28;20056;-57
2023/06/02 08:42:14;;;;;;;27.70;12.48;;;;;;;-0.17;56.53;97369.84;5054442;28;20068;-57
2023/06/02 08:44:42;;;;;;;24.63;11.77;;;;;;;0.06;57.17;97362.94;5050411;28;20496;-58
2023/06/02 08:47:11;;;;;;;23.92;12.15;;;;;;;0.26;56.81;97365.94;5052583;28;20044;-58
2023/06/02 08:49:41;;;;;;;25.67;11.48;;;;;;;0.41;56.43;97362.59;5048853;28;20057;-57
2023/06/02 08:52:20;;;;;;;21.15;11.18;;;;;;;0.58;55.98;97364.09;5054085;28;20045;-57
2023/06/02 08:54:47;;;;;;;20.98;10.43;;;;;;;0.34;54.86;97375.50;5049355;28;20044;-57
2023/06/02 08:57:16;;;;;;;26.08;11.98;;;;;;;0.52;55.73;97367.41;5053779;28;20102;-57
2023/06/02 08:59:44;;;;;;;25.50;11.38;;;;;;;0.62;55.37;97354.13;5046114;28;20057;-57
2023/06/02 09:02:11;;;;;;;27.00;10.13;;;;;;;0.67;54.46;97362.25;5049693;28;20055;-57
2023/06/02 09:04:38;;;;;;;22.05;10.23;;;;;;;0.36;55.44;97371.75;5049244;28;20041;-57
2023/06/02 09:09:52;;;;;;;21.95;10.50;;;;;;;0.26;55.84;97365.94;5110731;27;20380;-57
2023/06/02 09:12:20;;;;;;;19.13;9.52;;;;;;;0.44;56.18;97363.06;5106171;28;20048;-57
2023/06/02 09:15:05;;;;;;;19.30;9.50;;;;;;;0.59;55.13;97365.75;5110517;28;20059;-56
2023/06/02 09:17:33;;;;;;;21.17;9.43;;;;;;;0.92;55.22;97365.50;5105822;28;20439;-57
2023/06/02 09:20:07;;;;;;;22.70;10.80;;;;;;;1.19;54.46;97365.94;5109417;28;20048;-57
2023/06/02 09:22:33;;;;;;;17.75;9.50;;;;;;;1.21;53.73;97377.03;5075391;28;20056;-57
2023/06/02 09:25:01;;;;;;;18.15;7.28;;;;;;;1.19;53.02;97371.16;5101354;28;20047;-57
2023/06/02 09:27:28;;;;;;;18.88;7.13;;;;;;;1.44;52.13;97375.19;5105933;28;20089;-57
2023/06/02 09:30:02;;;;;;;20.05;7.13;;;;;;;1.75;52.17;97373.38;5095672;28;20036;-54
2023/06/02 09:32:34;;;;;;;21.45;7.90;;;;;;;1.86;51.62;97370.34;5089379;28;20501;-54
2023/06/02 09:35:01;;;;;;;22.80;9.68;;;;;;;2.06;50.79;97367.97;5100529;28;20036;-54
2023/06/02 09:37:28;;;;;;;25.98;9.18;;;;;;;2.24;51.53;97373.63;5110091;28;20051;-55
2023/06/02 09:39:57;;;;;;;25.27;7.40;;;;;;;2.16;49.97;97376.34;5106428;28;20129;-55
2023/06/02 09:42:24;;;;;;;16.25;7.15;;;;;;;2.26;50.55;97373.47;5102793;28;20051;-57
2023/06/02 09:45:08;;;;;;;19.02;7.50;;;;;;;2.56;51.09;97376.78;5094652;28;20097;-57
2023/06/02 09:47:38;;;;;;;18.88;8.30;;;;;;;2.03;50.70;97368.34;5106525;28;20055;-56
2023/06/02 09:50:05;;;;;;;20.73;8.43;;;;;;;2.11;50.52;97371.66;5109342;28;20058;-57
2023/06/02 09:52:32;;;;;;;19.08;9.82;;;;;;;2.32;51.15;97379.75;5109985;28;20058;-56
2023/06/02 09:54:59;;;;;;;21.17;9.27;;;;;;;2.55;50.07;97377.81;5105300;28;20044;-57
2023/06/02 09:57:26;;;;;;;21.17;7.97;;;;;;;2.50;49.45;97367.88;5109953;28;20047;-57
2023/06/02 09:59:53;;;;;;;20.85;7.75;;;;;;;2.55;49.45;97379.59;5103466;28;20378;-57
2023/06/02 10:02:19;;;;;;;20.20;9.93;;;;;;;2.41;51.42;97366.38;5109718;28;20134;-57
2023/06/02 10:04:46;;;;;;;19.65;10.85;;;;;;;2.28;51.02;97368.84;5103898;28;20130;-56
2023/06/02 10:13:18;;;;;;;21.13;10.48;;;;;;;2.94;49.27;97365.28;5106862;27;20342;-58
2023/06/02 10:16:24;;;;;;;18.58;8.60;;;;;;;3.09;48.93;97371.25;5110697;28;20082;-56
2023/06/02 10:19:22;;;;;;;17.10;7.78;;;;;;;2.98;49.24;97377.00;5106003;28;20132;-55
2023/06/02 10:22:16;;;;;;;18.45;6.97;;;;;;;3.45;48.47;97365.09;5110260;28;20253;-55
2023/06/02 10:24:55;;;;;;;22.17;7.28;;;;;;;3.37;47.22;97365.25;5106245;28;20055;-56
2023/06/02 10:27:39;;;;;;;15.95;7.43;;;;;;;3.37;48.16;97373.13;5110718;28;20052;-55
2023/06/02 10:30:06;;;;;;;17.17;7.20;;;;;;;2.85;47.87;97364.59;5108005;28;20060;-56
2023/06/02 10:32:49;;;;;;;15.65;7.05;;;;;;;3.46;48.29;97367.53;5106876;28;20036;-57
2023/06/02 10:35:17;;;;;;;19.00;6.60;;;;;;;4.03;48.57;97375.31;5110546;28;20050;-55
2023/06/02 10:37:45;;;;;;;17.55;6.80;;;;;;;4.05;46.03;97375.94;5106136;28;20082;-55
2023/06/02 10:40:14;;;;;;;21.00;6.90;;;;;;;3.94;45.37;97369.44;5110749;28;20093;-55
2023/06/02 10:43:09;;;;;;;16.95;5.35;;;;;;;4.33;47.23;97364.53;5105754;28;20093;-56
2023/06/02 10:45:36;;;;;;;20.23;5.13;;;;;;;4.15;45.73;97363.28;5108726;28;20051;-56
2023/06/02 10:48:43;;;;;;;13.68;4.97;;;;;;;3.73;45.71;97359.00;5105170;28;20397;-55
2023/06/02 10:51:11;;;;;;;18.70;5.07;;;;;;;4.15;46.17;97360.66;5109569;28;20067;-55
2023/06/02 10:54:02;;;;;;;16.25;4.40;;;;;;;4.46;45.55;97361.97;5105229;28;20052;-55
2023/06/02 10:59:30;;;;;;;20.70;4.35;;;;;;;4.05;45.87;97354.94;5060094;28;20404;-56
2023/06/02 11:01:58;;;;;;;17.10;4.72;;;;;;;3.95;46.97;97355.31;5045451;28;20314;-55
2023/06/02 11:04:34;;;;;;;14.23;4.47;;;;;;;3.81;46.19;97337.91;5049825;28;20493;-56
2023/06/02 11:07:21;;;;;;;13.82;3.90;;;;;;;4.15;46.92;97352.00;5045668;28;20245;-56
2023/06/02 11:09:54;;;;;;;17.88;4.75;;;;;;;4.24;46.19;97348.19;5062353;28;20098;-55
2023/06/02 11:13:01;;;;;;;20.65;4.20;;;;;;;4.29;46.03;97343.13;5063481;28;20118;-56
2023/06/02 11:15:28;;;;;;;13.98;4.32;;;;;;;4.19;46.04;97338.25;5065999;28;20044;-55
2023/06/02 11:17:54;;;;;;;22.60;4.63;;;;;;;4.27;46.13;97328.59;5049950;28;20842;-55
2023/06/02 11:20:33;;;;;;;22.60;4.80;;;;;;;4.65;46.95;97339.41;5060249;28;20042;-55
2023/06/02 11:23:09;;;;;;;14.68;4.40;;;;;;;4.38;45.95;97330.66;5050374;28;20032;-54
2023/06/02 11:25:36;;;;;;;17.92;4.97;;;;;;;4.46;47.06;97338.34;5050579;28;20049;-54
2023/06/02 11:28:02;;;;;;;18.25;4.20;;;;;;;4.74;47.02;97338.19;5046580;28;20038;-58
2023/06/02 11:30:29;;;;;;;19.13;4.43;;;;;;;5.09;46.44;97343.28;5064176;28;20037;-54
2023/06/02 11:32:56;;;;;;;17.10;4.93;;;;;;;4.92;45.61;97342.88;5053854;28;20037;-54
2023/06/02 11:35:25;;;;;;;23.55;4.55;;;;;;;4.96;45.74;97343.28;5046725;28;20048;-54
2023/06/02 11:38:08;;;;;;;14.48;4.43;;;;;;;5.11;46.23;97343.91;5049756;28;20103;-54
2023/06/02 11:40:36;;;;;;;18.20;4.65;;;;;;;5.19;46.50;97345.53;5044719;28;20111;-54
2023/06/02 11:43:03;;;;;;;14.65;4.82;;;;;;;5.28;46.20;97343.50;5062948;28;20102;-53
2023/06/02 11:45:30;;;;;;;16.75;5.07;;;;;;;5.27;46.47;97347.94;5063665;28;20051;-54